Terminal Aerodrome Forecast
Issued by NWS

Home | Current Version | Previous Version | Graphics & Text | Print | Product List | Glossary On
Versions: 1 2 3 4 5 6 7 8 9 10 11 12 13 14 15 16 17 18 19 20 21 22 23 24 25 26 27 28 29 30 31 32 33 34 35
000
FTUS43 KGRB 191700
TAFRHI
TAF
KRHI 191736Z 1918/2018 27012G20KT 2SM -SN OVC015
      TEMPO 1918/1921 5SM -SN BKN015 OVC022
     FM192100 27011G18KT 5SM -SN SCT015 OVC025
     FM200000 27009KT P6SM -SHSN SCT020 OVC030
     FM200200 28011KT P6SM -SHSN BKN035
     FM201400 29012KT P6SM BKN040
     FM201600 28014G20KT P6SM BKN035
      TEMPO 2016/2018 SCT035=

USA.gov is the U.S. government's official web portal to all federal, state and local government web resources and services.